createdAt,value
2022-10-20T00:00:08.468Z,99261.66
2022-10-20T00:02:10.615Z,99253.69
2022-10-20T00:04:12.234Z,99256.66
2022-10-20T00:06:23.145Z,99251.69
2022-10-20T00:08:24.839Z,99243.72
2022-10-20T00:10:26.320Z,99239.59
2022-10-20T00:12:28.124Z,99233.53
2022-10-20T00:14:29.738Z,99231.28
2022-10-20T00:16:34.690Z,99234.28
2022-10-20T00:18:36.742Z,99227.16
2022-10-20T00:20:39.897Z,99227.63
2022-10-20T00:22:41.695Z,99222.44
2022-10-20T00:24:43.612Z,99231.94
2022-10-20T00:26:45.258Z,99230.53
2022-10-20T00:28:47.249Z,99229.13
2022-10-20T00:30:55.055Z,99229.63
2022-10-20T00:32:56.927Z,99218.94
2022-10-20T00:34:58.580Z,99220.25
2022-10-20T00:37:00.334Z,99211.72
2022-10-20T00:39:04.580Z,99220.97
2022-10-20T00:41:06.710Z,99219.81
2022-10-20T00:43:13.554Z,99220.31
2022-10-20T00:45:18.779Z,99216.41
2022-10-20T00:47:30.569Z,99224.03
2022-10-20T00:49:32.235Z,99223.44
2022-10-20T00:51:34.571Z,99223.09
2022-10-20T00:53:36.158Z,99221.44
2022-10-20T00:55:41.862Z,99223.59
2022-10-20T00:57:47.658Z,99219.44
2022-10-20T00:59:49.404Z,99219.94
2022-10-20T01:01:51.317Z,99208.41
2022-10-20T01:03:53.252Z,99209.25
2022-10-20T01:05:54.910Z,99205.09
2022-10-20T01:07:56.606Z,99211.63
2022-10-20T01:09:58.381Z,99207.25
2022-10-20T01:12:14.178Z,99210.47
2022-10-20T01:14:25.319Z,99206.06
2022-10-20T01:16:54.440Z,99196.72
2022-10-20T01:19:13.119Z,99197.78
2022-10-20T01:21:14.845Z,99196.34
2022-10-20T01:23:39.112Z,99200.97
2022-10-20T01:26:18.051Z,99199.81
2022-10-20T01:28:25.354Z,99192.69
2022-10-20T01:30:26.985Z,99193.78
2022-10-20T01:32:46.508Z,99188.81
2022-10-20T01:34:58.934Z,99192.84
2022-10-20T01:37:28.362Z,99189.28
2022-10-20T01:39:48.781Z,99191.69
2022-10-20T01:41:56.543Z,99184.78
2022-10-20T01:44:01.291Z,99190.47
2022-10-20T01:46:04.448Z,99189.63
2022-10-20T01:48:07.934Z,99196.41
2022-10-20T01:50:11.492Z,99187.63
2022-10-20T01:52:13.803Z,99183.47
2022-10-20T01:54:27.190Z,99179.59
2022-10-20T01:56:53.651Z,99173.28
2022-10-20T01:59:25.201Z,99163.09
2022-10-20T02:01:57.943Z,99167.16
2022-10-20T02:04:04.652Z,99162.50
2022-10-20T02:06:34.316Z,99153.97
2022-10-20T02:08:57.171Z,99162.38
2022-10-20T02:11:02.137Z,99152.09
2022-10-20T02:13:07.190Z,99149.00
2022-10-20T02:15:12.219Z,99143.53
2022-10-20T02:17:17.285Z,99140.22
2022-10-20T02:19:22.856Z,99138.31
2022-10-20T02:21:25.347Z,99129.31
2022-10-20T02:23:35.181Z,99133.09
2022-10-20T02:25:40.793Z,99128.72
2022-10-20T02:27:47.700Z,99125.16
2022-10-20T02:30:03.141Z,99125.38
2022-10-20T02:32:05.962Z,99120.19
2022-10-20T02:34:08.571Z,99120.19
2022-10-20T02:36:16.689Z,99121.50
2022-10-20T02:38:18.395Z,99114.13
2022-10-20T02:40:22.060Z,99117.34
2022-10-20T02:42:23.674Z,99114.03
2022-10-20T02:44:25.187Z,99112.38
2022-10-20T02:46:26.990Z,99114.25
2022-10-20T02:48:28.638Z,99117.25
2022-10-20T02:50:30.278Z,99109.06
2022-10-20T02:52:32.007Z,99117.50
2022-10-20T02:54:33.888Z,99113.34
2022-10-20T02:56:35.463Z,99112.50
2022-10-20T02:58:37.248Z,99111.94
2022-10-20T03:00:38.827Z,99117.88
2022-10-20T03:02:40.475Z,99122.47
2022-10-20T03:04:42.067Z,99122.47
2022-10-20T03:06:44.149Z,99131.16
2022-10-20T03:08:45.799Z,99119.41
2022-10-20T03:10:47.240Z,99113.94
2022-10-20T03:12:48.963Z,99115.03
2022-10-20T03:14:50.502Z,99115.59
2022-10-20T03:16:52.137Z,99117.75
2022-10-20T03:18:53.848Z,99122.13
2022-10-20T03:20:55.552Z,99122.13
2022-10-20T03:22:57.303Z,99119.66
2022-10-20T03:24:58.844Z,99117.75
2022-10-20T03:27:00.383Z,99113.13
2022-10-20T03:29:01.874Z,99108.47
2022-10-20T03:31:05.014Z,99109.31
2022-10-20T03:33:08.817Z,99109.78
2022-10-20T03:35:10.641Z,99111.47
2022-10-20T03:37:12.380Z,99106.25
2022-10-20T03:39:13.960Z,99111.72
2022-10-20T03:41:15.497Z,99113.03
2022-10-20T03:43:17.219Z,99120.59
2022-10-20T03:45:18.835Z,99117.06
2022-10-20T03:47:20.554Z,99111.84
2022-10-20T03:49:22.226Z,99113.97
2022-10-20T03:51:23.965Z,99112.31
2022-10-20T03:53:25.771Z,99108.78
2022-10-20T03:55:27.296Z,99107.94
2022-10-20T03:57:28.849Z,99105.69
2022-10-20T03:59:30.624Z,99108.66
2022-10-20T04:01:33.582Z,99119.78
2022-10-20T04:03:35.241Z,99113.75
2022-10-20T04:05:39.556Z,99109.34
2022-10-20T04:07:41.320Z,99106.03
2022-10-20T04:09:42.808Z,99101.69
2022-10-20T04:11:44.775Z,99100.25
2022-10-20T04:13:46.399Z,99102.16
2022-10-20T04:15:48.083Z,99097.75
2022-10-20T04:17:49.673Z,99103.22
2022-10-20T04:19:51.296Z,99097.16
2022-10-20T04:21:53.044Z,99095.50
2022-10-20T04:23:56.254Z,99093.03
2022-10-20T04:25:57.835Z,99094.31
2022-10-20T04:28:01.176Z,99089.94
2022-10-20T04:30:03.017Z,99100.03
2022-10-20T04:32:04.904Z,99093.75
2022-10-20T04:34:06.562Z,99095.06
2022-10-20T04:36:12.050Z,99095.28
2022-10-20T04:38:14.266Z,99093.63
2022-10-20T04:40:16.023Z,99099.09
2022-10-20T04:42:18.678Z,99092.44
2022-10-20T04:44:20.210Z,99089.69
2022-10-20T04:46:22.028Z,99090.19
2022-10-20T04:48:23.495Z,99085.81
2022-10-20T04:50:25.077Z,99089.59
2022-10-20T04:52:41.225Z,99086.53
2022-10-20T04:54:42.794Z,99078.56
2022-10-20T04:56:47.609Z,99075.25
2022-10-20T04:58:50.819Z,99064.34
2022-10-20T05:00:52.482Z,99062.72
2022-10-20T05:02:55.255Z,99059.75
2022-10-20T05:04:56.674Z,99064.13
2022-10-20T05:06:58.398Z,99059.50
2022-10-20T05:09:02.610Z,99057.84
2022-10-20T05:11:04.580Z,99057.84
2022-10-20T05:13:06.367Z,99053.81
2022-10-20T05:15:08.129Z,99050.50
2022-10-20T05:17:10.162Z,99048.59
2022-10-20T05:19:11.899Z,99044.56
2022-10-20T05:21:16.743Z,99041.84
2022-10-20T05:23:18.565Z,99042.66
2022-10-20T05:25:36.815Z,99051.22
2022-10-20T05:27:41.981Z,99044.09
2022-10-20T05:29:43.727Z,99044.91
2022-10-20T05:31:48.042Z,99048.69
2022-10-20T05:33:52.245Z,99051.44
2022-10-20T05:35:53.994Z,99047.06
2022-10-20T05:37:56.126Z,99043.25
2022-10-20T05:39:57.701Z,99045.16
2022-10-20T05:41:59.339Z,99049.78
2022-10-20T05:44:04.407Z,99056.88
2022-10-20T05:46:06.370Z,99043.25
2022-10-20T05:48:07.970Z,99047.41
2022-10-20T05:50:10.236Z,99044.44
2022-10-20T05:52:11.994Z,99050.72
2022-10-20T05:54:14.260Z,99046.09
2022-10-20T05:56:18.820Z,99035.19
2022-10-20T05:58:22.932Z,99027.00
2022-10-20T06:00:30.806Z,99030.56
2022-10-20T06:02:32.737Z,99033.06
2022-10-20T06:04:34.286Z,99029.50
2022-10-20T06:06:36.344Z,99016.72
2022-10-20T06:08:38.483Z,99024.91
2022-10-20T06:10:40.063Z,99025.47
2022-10-20T06:12:42.798Z,99029.03
2022-10-20T06:14:44.514Z,99024.16
2022-10-20T06:16:46.310Z,99030.44
2022-10-20T06:18:48.100Z,99029.38
2022-10-20T06:20:59.316Z,99030.78
2022-10-20T06:23:00.885Z,99025.09
2022-10-20T06:25:04.326Z,99029.25
2022-10-20T06:27:06.022Z,99028.16
2022-10-20T06:29:11.610Z,99035.28
2022-10-20T06:31:31.552Z,99036.13
2022-10-20T06:33:33.203Z,99033.97
2022-10-20T06:35:34.831Z,99031.84
2022-10-20T06:37:36.384Z,99035.13
2022-10-20T06:39:38.138Z,99023.75
2022-10-20T06:41:39.982Z,99012.59
2022-10-20T06:43:49.226Z,99003.34
2022-10-20T06:45:58.580Z,99008.56
2022-10-20T06:48:00.334Z,99012.69
2022-10-20T06:50:01.948Z,99014.38
2022-10-20T06:52:04.090Z,99018.50
2022-10-20T06:54:06.035Z,99024.31
2022-10-20T06:56:11.860Z,99023.00
2022-10-20T06:58:13.453Z,99023.59
2022-10-20T07:00:15.348Z,99014.94
2022-10-20T07:02:17.333Z,99010.88
2022-10-20T07:04:18.912Z,99007.63
2022-10-20T07:06:29.474Z,99008.00
2022-10-20T07:08:34.473Z,99008.66
2022-10-20T07:10:36.192Z,99008.19
2022-10-20T07:12:38.351Z,99007.22
2022-10-20T07:14:40.529Z,99013.84
2022-10-20T07:16:42.301Z,99010.94
2022-10-20T07:20:51.268Z,99013.94
2022-10-20T07:22:52.976Z,98996.59
2022-10-20T07:24:54.709Z,99001.09
2022-10-20T07:26:56.958Z,98999.28
2022-10-20T07:29:02.976Z,98998.03
2022-10-20T07:31:07.402Z,98981.47
2022-10-20T07:33:09.788Z,98990.09
2022-10-20T07:35:11.426Z,98995.13
2022-10-20T07:37:13.551Z,98994.13
2022-10-20T07:39:15.243Z,99001.91
2022-10-20T07:41:17.216Z,99011.31
2022-10-20T07:43:19.344Z,99007.91
2022-10-20T07:45:21.335Z,99000.94
2022-10-20T07:47:23.054Z,98992.88
2022-10-20T07:49:43.536Z,98994.50
2022-10-20T07:51:46.516Z,98996.13
2022-10-20T07:53:56.898Z,98995.03
2022-10-20T07:56:01.645Z,98999.44
2022-10-20T07:58:03.325Z,98999.75
2022-10-20T08:00:05.363Z,98999.47
2022-10-20T08:02:15.879Z,98988.56
2022-10-20T08:04:17.572Z,98987.53
2022-10-20T08:06:19.663Z,98980.44
2022-10-20T08:08:21.477Z,98973.34
2022-10-20T08:10:23.073Z,98980.25
2022-10-20T08:12:24.904Z,98975.66
2022-10-20T08:14:27.298Z,98965.56
2022-10-20T08:16:33.831Z,98972.75
2022-10-20T08:18:40.179Z,98959.88
2022-10-20T08:20:41.908Z,98964.88
2022-10-20T08:22:43.491Z,98959.69
2022-10-20T08:24:45.668Z,98943.00
2022-10-20T08:26:47.499Z,98941.94
2022-10-20T08:28:50.808Z,98939.00
2022-10-20T08:30:52.346Z,98932.47
2022-10-20T08:32:54.457Z,98929.47
2022-10-20T08:34:55.924Z,98936.63
2022-10-20T08:36:57.969Z,98938.03
2022-10-20T08:39:03.493Z,98941.88
2022-10-20T08:41:16.376Z,98951.53
2022-10-20T08:43:19.597Z,98954.59
2022-10-20T08:45:24.212Z,98954.63
2022-10-20T08:47:37.106Z,98945.03
2022-10-20T08:49:39.001Z,98943.41
2022-10-20T08:51:42.645Z,98947.28
2022-10-20T08:53:45.455Z,98943.72
2022-10-20T08:55:47.394Z,98944.03
2022-10-20T08:57:49.560Z,98945.72
2022-10-20T08:59:54.000Z,98944.63
2022-10-20T09:01:57.821Z,98935.56
2022-10-20T09:04:23.514Z,98929.22
2022-10-20T09:06:25.573Z,98925.94
2022-10-20T09:08:31.044Z,98922.34
2022-10-20T09:10:44.941Z,98922.91
2022-10-20T09:12:48.901Z,98917.91
2022-10-20T09:14:50.658Z,98915.13
2022-10-20T09:17:00.224Z,98905.16
2022-10-20T09:19:02.620Z,98898.53
2022-10-20T09:21:13.364Z,98905.06
2022-10-20T09:23:39.518Z,98900.78
2022-10-20T09:25:42.188Z,98896.22
2022-10-20T09:27:45.282Z,98894.91
2022-10-20T09:29:46.955Z,98887.50
2022-10-20T09:31:54.436Z,98893.00
2022-10-20T09:33:55.966Z,98881.94
2022-10-20T09:36:04.304Z,98878.25
2022-10-20T09:38:29.906Z,98875.31
2022-10-20T09:40:32.354Z,98881.25
2022-10-20T09:42:40.133Z,98892.09
2022-10-20T09:44:47.626Z,98886.34
2022-10-20T09:46:53.249Z,98873.16
2022-10-20T09:48:55.404Z,98860.78
2022-10-20T09:50:58.768Z,98866.44
2022-10-20T09:53:04.451Z,98862.72
2022-10-20T09:55:20.142Z,98865.34
2022-10-20T09:57:23.064Z,98859.66
2022-10-20T09:59:34.456Z,98855.69
2022-10-20T10:01:54.592Z,98855.31
2022-10-20T10:03:59.941Z,98855.44
2022-10-20T10:06:39.891Z,98840.38
2022-10-20T10:08:44.962Z,98846.03
2022-10-20T10:11:14.208Z,98841.19
2022-10-20T10:13:26.560Z,98852.38
2022-10-20T10:15:34.531Z,98846.09
2022-10-20T10:17:39.271Z,98852.38
2022-10-20T10:19:41.174Z,98853.38
2022-10-20T10:21:51.945Z,98850.47
2022-10-20T10:24:02.194Z,98852.59
2022-10-20T10:26:24.120Z,98845.09
2022-10-20T10:28:31.131Z,98847.38
2022-10-20T10:30:38.374Z,98837.75
2022-10-20T10:32:44.250Z,98845.94
2022-10-20T10:35:11.994Z,98836.09
2022-10-20T10:37:17.306Z,98835.16
2022-10-20T10:39:19.113Z,98832.19
2022-10-20T10:41:41.852Z,98827.59
2022-10-20T10:44:00.386Z,98813.88
2022-10-20T10:46:36.989Z,98797.34
2022-10-20T10:48:54.116Z,98802.72
2022-10-20T10:51:02.502Z,98793.38
2022-10-20T10:53:16.375Z,98785.69
2022-10-20T10:55:47.812Z,98792.22
2022-10-20T10:58:08.095Z,98799.56
2022-10-20T11:00:27.899Z,98794.97
2022-10-20T11:02:39.359Z,98788.72
2022-10-20T11:04:58.425Z,98798.38
2022-10-20T11:07:25.136Z,98805.59
2022-10-20T11:09:48.404Z,98804.47
2022-10-20T11:12:29.595Z,98804.47
2022-10-20T11:14:47.181Z,98792.97
2022-10-20T11:17:02.250Z,98788.88
2022-10-20T11:19:09.807Z,98793.81
2022-10-20T11:21:22.841Z,98792.03
2022-10-20T11:23:46.794Z,98796.28
2022-10-20T11:25:57.302Z,98806.13
2022-10-20T11:28:00.198Z,98802.81
2022-10-20T11:30:08.996Z,98795.47
2022-10-20T11:32:41.326Z,98795.16
2022-10-20T11:35:13.735Z,98777.50
2022-10-20T11:37:36.988Z,98766.03
2022-10-20T11:39:55.836Z,98771.28
2022-10-20T11:42:05.406Z,98762.47
2022-10-20T11:44:14.351Z,98770.34
2022-10-20T11:46:20.831Z,98760.81
2022-10-20T11:48:45.588Z,98753.63
2022-10-20T11:53:36.694Z,98759.50
2022-10-20T11:55:59.394Z,98743.97
2022-10-20T11:58:23.985Z,98741.03
2022-10-20T12:00:46.259Z,98734.63
2022-10-20T12:02:54.301Z,98726.28
2022-10-20T12:05:18.418Z,98728.28
2022-10-20T12:07:32.109Z,98731.06
2022-10-20T12:09:54.344Z,98734.97
2022-10-20T12:12:03.623Z,98740.56
2022-10-20T12:14:14.126Z,98735.31
2022-10-20T12:16:54.728Z,98750.69
2022-10-20T12:19:17.693Z,98751.00
2022-10-20T12:21:54.094Z,98739.38
2022-10-20T12:24:02.887Z,98726.31
2022-10-20T12:26:04.567Z,98725.47
2022-10-20T12:28:22.737Z,98718.13
2022-10-20T12:30:39.790Z,98705.69
2022-10-20T12:32:55.800Z,98710.44
2022-10-20T12:35:03.629Z,98705.19
2022-10-20T12:37:35.217Z,98703.09
2022-10-20T12:39:37.281Z,98697.53
2022-10-20T12:41:54.068Z,98693.56
2022-10-20T12:44:01.716Z,98703.09
2022-10-20T12:46:08.123Z,98707.16
2022-10-20T12:48:22.914Z,98726.94
2022-10-20T12:50:40.505Z,98726.47
2022-10-20T12:52:42.322Z,98704.56
2022-10-20T12:54:48.490Z,98700.47
2022-10-20T12:56:52.445Z,98694.41
2022-10-20T12:59:31.042Z,98682.66
2022-10-20T13:02:10.944Z,98700.31
2022-10-20T13:04:51.146Z,98695.44
2022-10-20T13:06:52.962Z,98704.41
2022-10-20T13:09:03.886Z,98705.06
2022-10-20T13:11:35.857Z,98699.34
2022-10-20T13:13:45.321Z,98705.22
2022-10-20T13:15:53.464Z,98696.72
2022-10-20T13:18:03.068Z,98699.00
2022-10-20T13:20:36.238Z,98694.09
2022-10-20T13:22:46.663Z,98689.22
2022-10-20T13:24:48.661Z,98689.53
2022-10-20T13:26:56.176Z,98687.09
2022-10-20T13:29:01.282Z,98684.97
2022-10-20T13:31:14.731Z,98678.09
2022-10-20T13:33:45.024Z,98675.78
2022-10-20T13:36:05.378Z,98684.78
2022-10-20T13:38:14.928Z,98678.72
2022-10-20T13:41:13.006Z,98676.09
2022-10-20T13:43:38.546Z,98674.63
2022-10-20T13:45:42.942Z,98668.25
2022-10-20T13:48:13.664Z,98664.16
2022-10-20T13:50:26.609Z,98668.72
2022-10-20T13:52:32.575Z,98667.09
2022-10-20T13:54:37.847Z,98674.13
2022-10-20T13:56:47.728Z,98680.00
2022-10-20T13:59:06.589Z,98670.34
2022-10-20T14:01:19.292Z,98667.09
2022-10-20T14:03:20.894Z,98668.56
2022-10-20T14:05:23.647Z,98686.03
2022-10-20T14:07:25.189Z,98679.16
2022-10-20T14:09:29.816Z,98678.38
2022-10-20T14:11:32.069Z,98676.38
2022-10-20T14:13:35.862Z,98670.34
2022-10-20T14:15:37.911Z,98676.22
2022-10-20T14:17:40.799Z,98674.44
2022-10-20T14:19:46.028Z,98674.44
2022-10-20T14:21:50.904Z,98673.13
2022-10-20T14:23:52.538Z,98675.06
2022-10-20T14:25:54.969Z,98676.53
2022-10-20T14:27:57.434Z,98684.03
2022-10-20T14:30:02.993Z,98662.47
2022-10-20T14:32:06.485Z,98663.09
2022-10-20T14:34:20.048Z,98661.31
2022-10-20T14:38:37.690Z,98668.31
2022-10-20T14:40:39.438Z,98667.00
2022-10-20T14:42:44.450Z,98670.13
2022-10-20T14:44:46.084Z,98682.69
2022-10-20T14:46:48.077Z,98685.75
2022-10-20T14:48:50.735Z,98692.75
2022-10-20T14:50:53.938Z,98687.53
2022-10-20T14:52:55.676Z,98678.72
2022-10-20T14:54:57.759Z,98694.84
2022-10-20T14:57:04.208Z,98691.56
2022-10-20T14:59:14.713Z,98686.66
2022-10-20T15:01:19.823Z,98686.16
2022-10-20T15:03:21.384Z,98686.78
2022-10-20T15:05:26.010Z,98692.69
2022-10-20T15:07:33.181Z,98694.97
2022-10-20T15:09:41.481Z,98686.44
2022-10-20T15:11:46.853Z,98692.63
2022-10-20T15:13:53.639Z,98696.38
2022-10-20T15:15:57.635Z,98702.25
2022-10-20T15:18:16.414Z,98696.84
2022-10-20T15:20:30.308Z,98696.63
2022-10-20T15:22:32.063Z,98696.97
2022-10-20T15:24:33.698Z,98693.72
2022-10-20T15:26:35.313Z,98692.38
2022-10-20T15:28:42.945Z,98681.09
2022-10-20T15:30:44.897Z,98677.00
2022-10-20T15:32:48.163Z,98668.50
2022-10-20T15:34:49.756Z,98654.97
2022-10-20T15:36:51.627Z,98646.44
2022-10-20T15:39:00.200Z,98627.69
2022-10-20T15:43:26.612Z,98607.09
2022-10-20T15:45:34.201Z,98593.06
2022-10-20T15:47:35.966Z,98595.94
2022-10-20T15:49:37.479Z,98603.75
2022-10-20T15:51:42.854Z,98624.28
2022-10-20T15:53:46.939Z,98632.94
2022-10-20T15:55:48.626Z,98625.25
2022-10-20T15:57:51.993Z,98608.41
2022-10-20T15:59:53.503Z,98605.97
2022-10-20T16:01:55.200Z,98609.38
2022-10-20T16:03:57.053Z,98607.56
2022-10-20T16:05:58.619Z,98589.13
2022-10-20T16:08:00.298Z,98596.09
2022-10-20T16:10:02.109Z,98588.44
2022-10-20T16:12:03.970Z,98579.13
2022-10-20T16:14:06.150Z,98569.78
2022-10-20T16:16:11.807Z,98565.19
2022-10-20T16:18:13.451Z,98563.38
2022-10-20T16:20:15.282Z,98558.47
2022-10-20T16:22:16.857Z,98545.56
2022-10-20T16:24:22.531Z,98538.19
2022-10-20T16:26:26.991Z,98548.28
2022-10-20T16:28:31.080Z,98565.50
2022-10-20T16:30:33.359Z,98555.72
2022-10-20T16:32:38.037Z,98548.31
2022-10-20T16:34:41.538Z,98563.09
2022-10-20T16:36:46.212Z,98567.91
2022-10-20T16:38:47.873Z,98566.59
2022-10-20T16:41:07.288Z,98561.50
2022-10-20T16:43:12.064Z,98566.22
2022-10-20T16:45:13.904Z,98555.75
2022-10-20T16:47:15.634Z,98556.41
2022-10-20T16:49:17.210Z,98553.13
2022-10-20T16:51:26.289Z,98565.44
2022-10-20T16:53:30.890Z,98568.00
2022-10-20T16:55:32.489Z,98572.22
2022-10-20T16:57:40.519Z,98582.78
2022-10-20T16:59:43.214Z,98587.00
2022-10-20T17:01:45.031Z,98586.78
2022-10-20T17:03:49.328Z,98576.34
2022-10-20T17:05:56.166Z,98589.97
2022-10-20T17:07:58.553Z,98594.19
2022-10-20T17:10:00.120Z,98588.44
2022-10-20T17:12:01.815Z,98584.34
2022-10-20T17:14:03.494Z,98581.91
2022-10-20T17:16:07.778Z,98588.88
2022-10-20T17:18:09.463Z,98590.31
2022-10-20T17:20:11.238Z,98597.28
2022-10-20T17:22:13.142Z,98598.38
2022-10-20T17:24:14.888Z,98601.78
2022-10-20T17:26:22.689Z,98609.88
2022-10-20T17:28:24.454Z,98610.97
2022-10-20T17:30:26.083Z,98612.41
2022-10-20T17:32:28.042Z,98617.75
2022-10-20T17:34:29.791Z,98623.56
2022-10-20T17:36:32.594Z,98622.53
2022-10-20T17:38:35.503Z,98618.13
2022-10-20T17:40:38.037Z,98606.56
2022-10-20T17:42:39.979Z,98619.38
2022-10-20T17:44:41.695Z,98618.53
2022-10-20T17:46:43.468Z,98610.53
2022-10-20T17:48:46.107Z,98594.59
2022-10-20T17:50:47.707Z,98599.56
2022-10-20T17:52:49.299Z,98617.59
2022-10-20T17:54:50.858Z,98612.69
2022-10-20T17:56:52.646Z,98614.91
2022-10-20T17:58:56.355Z,98621.88
2022-10-20T18:01:23.433Z,98599.88
2022-10-20T18:03:25.321Z,98606.81
2022-10-20T18:05:27.035Z,98598.84
2022-10-20T18:07:28.691Z,98600.28
2022-10-20T18:09:30.194Z,98589.84
2022-10-20T18:11:33.436Z,98591.75
2022-10-20T18:13:35.092Z,98598.72
2022-10-20T18:15:41.657Z,98589.09
2022-10-20T18:17:43.217Z,98600.47
2022-10-20T18:19:44.813Z,98598.31
2022-10-20T18:21:47.275Z,98598.63
2022-10-20T18:23:48.800Z,98593.69
2022-10-20T18:25:50.265Z,98598.13
2022-10-20T18:27:52.660Z,98612.72
2022-10-20T18:29:54.421Z,98617.44
2022-10-20T18:31:56.059Z,98621.31
2022-10-20T18:34:04.298Z,98615.78
2022-10-20T18:36:10.441Z,98601.16
2022-10-20T18:38:14.919Z,98594.81
2022-10-20T18:40:16.505Z,98588.78
2022-10-20T18:42:18.352Z,98608.94
2022-10-20T18:44:20.255Z,98619.66
2022-10-20T18:46:24.960Z,98618.03
2022-10-20T18:48:27.095Z,98623.84
2022-10-20T18:50:28.606Z,98626.63
2022-10-20T18:52:30.626Z,98618.31
2022-10-20T18:54:32.229Z,98606.47
2022-10-20T18:56:35.286Z,98611.19
2022-10-20T18:58:41.505Z,98597.66
2022-10-20T19:00:43.264Z,98588.59
2022-10-20T19:02:49.520Z,98603.50
2022-10-20T19:04:51.042Z,98611.78
2022-10-20T19:06:53.261Z,98606.56
2022-10-20T19:09:03.661Z,98600.22
2022-10-20T19:11:08.098Z,98593.06
2022-10-20T19:13:09.998Z,98601.34
2022-10-20T19:15:11.707Z,98605.25
2022-10-20T19:17:13.567Z,98601.66
2022-10-20T19:19:16.161Z,98604.41
2022-10-20T19:23:25.924Z,98607.78
2022-10-20T19:25:27.678Z,98604.50
2022-10-20T19:27:29.547Z,98613.59
2022-10-20T19:29:31.474Z,98611.13
2022-10-20T19:31:42.564Z,98637.91
2022-10-20T19:33:45.007Z,98646.81
2022-10-20T19:35:49.468Z,98627.78
2022-10-20T19:37:51.022Z,98626.16
2022-10-20T19:39:52.703Z,98654.88
2022-10-20T19:41:56.694Z,98641.38
2022-10-20T19:44:00.690Z,98625.94
2022-10-20T19:46:03.435Z,98624.59
2022-10-20T19:48:07.561Z,98612.72
2022-10-20T19:50:09.254Z,98602.81
2022-10-20T19:52:11.471Z,98589.28
2022-10-20T19:54:13.382Z,98586.00
2022-10-20T19:56:15.843Z,98595.38
2022-10-20T19:58:19.491Z,98615.84
2022-10-20T20:00:21.147Z,98618.88
2022-10-20T20:02:22.702Z,98607.06
2022-10-20T20:04:24.730Z,98613.16
2022-10-20T20:06:28.461Z,98630.00
2022-10-20T20:08:30.905Z,98626.47
2022-10-20T20:10:33.287Z,98628.38
2022-10-20T20:12:34.942Z,98636.94
2022-10-20T20:14:36.474Z,98647.47
2022-10-20T20:16:38.644Z,98637.56
2022-10-20T20:18:40.218Z,98645.31
2022-10-20T20:20:44.108Z,98630.72
2022-10-20T20:22:45.854Z,98633.75
2022-10-20T20:24:47.389Z,98632.13
2022-10-20T20:26:50.245Z,98624.97
2022-10-20T20:28:56.128Z,98614.50
2022-10-20T20:31:02.486Z,98620.84
2022-10-20T20:33:04.898Z,98629.44
2022-10-20T20:35:07.227Z,98641.28
2022-10-20T20:37:08.802Z,98638.84
2022-10-20T20:39:10.626Z,98639.94
2022-10-20T20:41:17.683Z,98639.41
2022-10-20T20:43:20.032Z,98641.66
2022-10-20T20:45:21.705Z,98635.31
2022-10-20T20:47:25.434Z,98635.63
2022-10-20T20:49:27.058Z,98636.75
2022-10-20T20:51:33.387Z,98628.78
2022-10-20T20:53:36.401Z,98642.84
2022-10-20T20:55:37.997Z,98639.56
2022-10-20T20:57:39.901Z,98639.06
2022-10-20T20:59:41.921Z,98634.63
2022-10-20T21:01:45.203Z,98634.13
2022-10-20T21:03:47.072Z,98625.84
2022-10-20T21:05:48.680Z,98622.25
2022-10-20T21:07:50.303Z,98606.03
2022-10-20T21:09:51.803Z,98606.31
2022-10-20T21:11:55.994Z,98598.66
2022-10-20T21:14:00.628Z,98601.69
2022-10-20T21:16:20.657Z,98611.38
2022-10-20T21:18:22.390Z,98618.03
2022-10-20T21:20:24.136Z,98622.72
2022-10-20T21:22:25.652Z,98615.28
2022-10-20T21:24:27.456Z,98613.94
2022-10-20T21:26:30.153Z,98616.69
2022-10-20T21:28:32.041Z,98626.06
2022-10-20T21:30:34.282Z,98622.47
2022-10-20T21:32:36.286Z,98629.66
2022-10-20T21:34:37.917Z,98639.03
2022-10-20T21:36:40.219Z,98640.16
2022-10-20T21:38:43.201Z,98636.56
2022-10-20T21:40:45.071Z,98639.63
2022-10-20T21:42:46.772Z,98641.25
2022-10-20T21:44:50.074Z,98637.69
2022-10-20T21:46:52.193Z,98625.53
2022-10-20T21:48:57.743Z,98633.00
2022-10-20T21:50:59.316Z,98636.56
2022-10-20T21:53:01.075Z,98631.06
2022-10-20T21:55:02.563Z,98638.50
2022-10-20T21:57:04.503Z,98645.13
2022-10-20T21:59:08.387Z,98646.78
2022-10-20T22:01:14.418Z,98644.34
2022-10-20T22:03:15.993Z,98640.44
2022-10-20T22:05:17.641Z,98644.34
2022-10-20T22:07:19.317Z,98638.00
2022-10-20T22:09:21.653Z,98628.06
2022-10-20T22:11:32.310Z,98620.09
2022-10-20T22:13:34.488Z,98617.84
2022-10-20T22:15:39.742Z,98605.47
2022-10-20T22:17:41.431Z,98598.31
2022-10-20T22:19:43.026Z,98608.00
2022-10-20T22:21:46.905Z,98617.94
2022-10-20T22:23:51.579Z,98615.16
2022-10-20T22:25:53.856Z,98606.59
2022-10-20T22:27:55.687Z,98588.41
2022-10-20T22:29:57.661Z,98590.34
2022-10-20T22:31:59.359Z,98589.53
2022-10-20T22:34:00.937Z,98599.72
2022-10-20T22:36:03.768Z,98579.63
2022-10-20T22:38:05.370Z,98572.78
2022-10-20T22:40:07.663Z,98568.38
2022-10-20T22:42:12.406Z,98561.00
2022-10-20T22:44:14.026Z,98564.84
2022-10-20T22:46:16.309Z,98571.19
2022-10-20T22:48:18.025Z,98580.56
2022-10-20T22:50:20.118Z,98585.28
2022-10-20T22:52:21.744Z,98596.59
2022-10-20T22:54:23.403Z,98615.06
2022-10-20T22:56:25.487Z,98622.53
2022-10-20T22:58:27.175Z,98615.38
2022-10-20T23:00:28.929Z,98604.34
2022-10-20T23:02:30.446Z,98601.28
2022-10-20T23:04:32.359Z,98611.78
2022-10-20T23:06:34.508Z,98591.66
2022-10-20T23:08:44.793Z,98578.19
2022-10-20T23:11:02.744Z,98563.06
2022-10-20T23:13:04.418Z,98561.97
2022-10-20T23:15:06.907Z,98565.50
2022-10-20T23:17:08.547Z,98565.00
2022-10-20T23:19:10.160Z,98560.31
2022-10-20T23:21:13.884Z,98569.41
2022-10-20T23:23:15.610Z,98565.00
2022-10-20T23:25:17.445Z,98567.47
2022-10-20T23:27:22.595Z,98561.97
2022-10-20T23:29:24.303Z,98574.09
2022-10-20T23:31:25.960Z,98570.22
2022-10-20T23:33:27.553Z,98565.81
2022-10-20T23:35:29.253Z,98553.69
2022-10-20T23:37:30.904Z,98556.72
2022-10-20T23:39:32.507Z,98562.81
2022-10-20T23:41:34.217Z,98562.81
2022-10-20T23:45:42.923Z,98557.06
2022-10-20T23:47:44.709Z,98549.91
2022-10-20T23:49:46.458Z,98538.06
2022-10-20T23:51:48.241Z,98536.44
2022-10-20T23:53:50.070Z,98535.59
2022-10-20T23:55:51.766Z,98527.63
2022-10-20T23:57:53.398Z,98517.72
2022-10-20T23:59:55.003Z,98511.09
